sensor_id;sensor_type;location;lat;lon;timestamp;pressure;altitude;pressure_sealevel;temperature
60731;BMP280;46580;52.114;11.674;2024-02-14T00:01:52;-19336.53;;;4.54
60731;BMP280;46580;52.114;11.674;2024-02-14T00:04:17;-19338.66;;;4.61
60731;BMP280;46580;52.114;11.674;2024-02-14T00:06:43;-19338.53;;;4.61
60731;BMP280;46580;52.114;11.674;2024-02-14T00:09:10;-19340.09;;;4.66
60731;BMP280;46580;52.114;11.674;2024-02-14T00:11:36;-19339.69;;;4.64
60731;BMP280;46580;52.114;11.674;2024-02-14T00:14:02;-19339.53;;;4.64
60731;BMP280;46580;52.114;11.674;2024-02-14T00:16:30;-19339.69;;;4.64
60731;BMP280;46580;52.114;11.674;2024-02-14T00:18:56;-19339.25;;;4.63
60731;BMP280;46580;52.114;11.674;2024-02-14T00:21:22;-19341.25;;;4.70
60731;BMP280;46580;52.114;11.674;2024-02-14T00:23:49;-19340.53;;;4.67
60731;BMP280;46580;52.114;11.674;2024-02-14T00:26:15;-19343.56;;;4.78
60731;BMP280;46580;52.114;11.674;2024-02-14T00:28:43;-19343.97;;;4.79
60731;BMP280;46580;52.114;11.674;2024-02-14T00:31:08;-19341.13;;;4.69
60731;BMP280;46580;52.114;11.674;2024-02-14T00:33:34;-19340.97;;;4.69
60731;BMP280;46580;52.114;11.674;2024-02-14T00:35:59;-19341.41;;;4.70
60731;BMP280;46580;52.114;11.674;2024-02-14T00:38:25;-19340.69;;;4.68
60731;BMP280;46580;52.114;11.674;2024-02-14T00:40:50;-19342.41;;;4.74
60731;BMP280;46580;52.114;11.674;2024-02-14T00:43:15;-19342.41;;;4.74
60731;BMP280;46580;52.114;11.674;2024-02-14T00:45:41;-19343.28;;;4.77
60731;BMP280;46580;52.114;11.674;2024-02-14T00:48:06;-19344.41;;;4.81
60731;BMP280;46580;52.114;11.674;2024-02-14T00:50:32;-19346.44;;;4.87
60731;BMP280;46580;52.114;11.674;2024-02-14T00:52:59;-19348.44;;;4.94
60731;BMP280;46580;52.114;11.674;2024-02-14T00:55:25;-19350.16;;;5.00
60731;BMP280;46580;52.114;11.674;2024-02-14T00:57:50;-19350.00;;;5.00
60731;BMP280;46580;52.114;11.674;2024-02-14T01:00:16;-19350.16;;;5.00
60731;BMP280;46580;52.114;11.674;2024-02-14T01:02:42;-19350.31;;;5.00
60731;BMP280;46580;52.114;11.674;2024-02-14T01:05:08;-19351.31;;;5.04
60731;BMP280;46580;52.114;11.674;2024-02-14T01:07:34;-19352.88;;;5.09
60731;BMP280;46580;52.114;11.674;2024-02-14T01:10:00;-19352.44;;;5.08
60731;BMP280;46580;52.114;11.674;2024-02-14T01:12:25;-19354.19;;;5.14
60731;BMP280;46580;52.114;11.674;2024-02-14T01:14:51;-19353.31;;;5.11
60731;BMP280;46580;52.114;11.674;2024-02-14T01:17:16;-19354.03;;;5.13
60731;BMP280;46580;52.114;11.674;2024-02-14T01:19:42;-19355.63;;;5.19
60731;BMP280;46580;52.114;11.674;2024-02-14T01:22:08;-19352.44;;;5.08
60731;BMP280;46580;52.114;11.674;2024-02-14T01:24:34;-19350.88;;;5.02
60731;BMP280;46580;52.114;11.674;2024-02-14T01:27:00;-19353.16;;;5.10
60731;BMP280;46580;52.114;11.674;2024-02-14T01:29:25;-19353.59;;;5.12
60731;BMP280;46580;52.114;11.674;2024-02-14T01:31:51;-19353.31;;;5.11
60731;BMP280;46580;52.114;11.674;2024-02-14T01:34:16;-19353.88;;;5.13
60731;BMP280;46580;52.114;11.674;2024-02-14T01:36:42;-19353.03;;;5.10
60731;BMP280;46580;52.114;11.674;2024-02-14T01:39:07;-19355.47;;;5.18
60731;BMP280;46580;52.114;11.674;2024-02-14T01:41:36;-19357.63;;;5.25
60731;BMP280;46580;52.114;11.674;2024-02-14T01:44:02;-19358.19;;;5.27
60731;BMP280;46580;52.114;11.674;2024-02-14T01:46:30;-19356.75;;;5.22
60731;BMP280;46580;52.114;11.674;2024-02-14T01:48:56;-19358.19;;;5.27
60731;BMP280;46580;52.114;11.674;2024-02-14T01:51:23;-19355.75;;;5.19
60731;BMP280;46580;52.114;11.674;2024-02-14T01:53:53;-19355.63;;;5.19
60731;BMP280;46580;52.114;11.674;2024-02-14T01:56:19;-19355.31;;;5.18
60731;BMP280;46580;52.114;11.674;2024-02-14T01:58:45;-19353.88;;;5.13
60731;BMP280;46580;52.114;11.674;2024-02-14T02:01:11;-19355.03;;;5.17
60731;BMP280;46580;52.114;11.674;2024-02-14T02:03:37;-19355.19;;;5.17
60731;BMP280;46580;52.114;11.674;2024-02-14T02:06:06;-19354.75;;;5.16
60731;BMP280;46580;52.114;11.674;2024-02-14T02:08:32;-19355.19;;;5.17
60731;BMP280;46580;52.114;11.674;2024-02-14T02:10:58;-19355.03;;;5.17
60731;BMP280;46580;52.114;11.674;2024-02-14T02:13:23;-19355.19;;;5.17
60731;BMP280;46580;52.114;11.674;2024-02-14T02:15:52;-19356.03;;;5.20
60731;BMP280;46580;52.114;11.674;2024-02-14T02:18:18;-19356.19;;;5.20
60731;BMP280;46580;52.114;11.674;2024-02-14T02:20:44;-19356.19;;;5.20
60731;BMP280;46580;52.114;11.674;2024-02-14T02:23:13;-19354.47;;;5.15
60731;BMP280;46580;52.114;11.674;2024-02-14T02:25:43;-19356.19;;;5.20
60731;BMP280;46580;52.114;11.674;2024-02-14T02:28:09;-19355.75;;;5.19
60731;BMP280;46580;52.114;11.674;2024-02-14T02:30:37;-19357.91;;;5.26
60731;BMP280;46580;52.114;11.674;2024-02-14T02:33:04;-19357.91;;;5.26
60731;BMP280;46580;52.114;11.674;2024-02-14T02:35:29;-19356.31;;;5.21
60731;BMP280;46580;52.114;11.674;2024-02-14T02:37:55;-19357.03;;;5.23
60731;BMP280;46580;52.114;11.674;2024-02-14T02:40:20;-19356.19;;;5.20
60731;BMP280;46580;52.114;11.674;2024-02-14T02:42:48;-19358.06;;;5.27
60731;BMP280;46580;52.114;11.674;2024-02-14T02:45:15;-19361.34;;;5.38
60731;BMP280;46580;52.114;11.674;2024-02-14T02:47:41;-19364.22;;;5.48
60731;BMP280;46580;52.114;11.674;2024-02-14T02:50:06;-19365.50;;;5.52
60731;BMP280;46580;52.114;11.674;2024-02-14T02:52:33;-19366.66;;;5.56
60731;BMP280;46580;52.114;11.674;2024-02-14T02:54:59;-19368.81;;;5.63
60731;BMP280;46580;52.114;11.674;2024-02-14T02:57:26;-19368.25;;;5.61
60731;BMP280;46580;52.114;11.674;2024-02-14T02:59:52;-19368.97;;;5.64
60731;BMP280;46580;52.114;11.674;2024-02-14T03:02:18;-19368.25;;;5.61
60731;BMP280;46580;52.114;11.674;2024-02-14T03:04:44;-19370.53;;;5.69
60731;BMP280;46580;52.114;11.674;2024-02-14T03:07:10;-19372.56;;;5.76
60731;BMP280;46580;52.114;11.674;2024-02-14T03:09:36;-19372.97;;;5.77
60731;BMP280;46580;52.114;11.674;2024-02-14T03:12:02;-19372.84;;;5.77
60731;BMP280;46580;52.114;11.674;2024-02-14T03:14:32;-19372.97;;;5.77
60731;BMP280;46580;52.114;11.674;2024-02-14T03:17:01;-19372.56;;;5.76
60731;BMP280;46580;52.114;11.674;2024-02-14T03:19:27;-19372.25;;;5.75
60731;BMP280;46580;52.114;11.674;2024-02-14T03:21:53;-19372.13;;;5.75
60731;BMP280;46580;52.114;11.674;2024-02-14T03:24:19;-19371.84;;;5.74
60731;BMP280;46580;52.114;11.674;2024-02-14T03:26:45;-19371.84;;;5.74
60731;BMP280;46580;52.114;11.674;2024-02-14T03:29:10;-19371.97;;;5.74
60731;BMP280;46580;52.114;11.674;2024-02-14T03:31:35;-19373.28;;;5.78
60731;BMP280;46580;52.114;11.674;2024-02-14T03:34:01;-19371.97;;;5.74
60731;BMP280;46580;52.114;11.674;2024-02-14T03:36:27;-19372.97;;;5.77
60731;BMP280;46580;52.114;11.674;2024-02-14T03:38:53;-19372.13;;;5.75
60731;BMP280;46580;52.114;11.674;2024-02-14T03:41:19;-19373.41;;;5.79
60731;BMP280;46580;52.114;11.674;2024-02-14T03:43:44;-19374.84;;;5.84
60731;BMP280;46580;52.114;11.674;2024-02-14T03:46:10;-19372.41;;;5.75
60731;BMP280;46580;52.114;11.674;2024-02-14T03:48:37;-19372.97;;;5.77
60731;BMP280;46580;52.114;11.674;2024-02-14T03:51:03;-19373.28;;;5.78
60731;BMP280;46580;52.114;11.674;2024-02-14T03:53:28;-19376.28;;;5.89
60731;BMP280;46580;52.114;11.674;2024-02-14T03:55:54;-19374.69;;;5.83
60731;BMP280;46580;52.114;11.674;2024-02-14T03:58:19;-19376.44;;;5.89
60731;BMP280;46580;52.114;11.674;2024-02-14T04:00:49;-19376.56;;;5.90
60731;BMP280;46580;52.114;11.674;2024-02-14T04:03:16;-19376.72;;;5.90
60731;BMP280;46580;52.114;11.674;2024-02-14T04:05:41;-19376.28;;;5.89
60731;BMP280;46580;52.114;11.674;2024-02-14T04:08:07;-19376.28;;;5.89
60731;BMP280;46580;52.114;11.674;2024-02-14T04:10:37;-19372.84;;;5.77
60731;BMP280;46580;52.114;11.674;2024-02-14T04:13:04;-19373.97;;;5.81
60731;BMP280;46580;52.114;11.674;2024-02-14T04:15:30;-19373.97;;;5.81
60731;BMP280;46580;52.114;11.674;2024-02-14T04:17:56;-19373.28;;;5.78
60731;BMP280;46580;52.114;11.674;2024-02-14T04:20:22;-19374.69;;;5.83
60731;BMP280;46580;52.114;11.674;2024-02-14T04:22:47;-19375.13;;;5.85
60731;BMP280;46580;52.114;11.674;2024-02-14T04:25:12;-19374.28;;;5.82
60731;BMP280;46580;52.114;11.674;2024-02-14T04:27:38;-19373.97;;;5.81
60731;BMP280;46580;52.114;11.674;2024-02-14T04:30:04;-19373.69;;;5.80
60731;BMP280;46580;52.114;11.674;2024-02-14T04:32:30;-19374.28;;;5.82
60731;BMP280;46580;52.114;11.674;2024-02-14T04:34:55;-19373.41;;;5.79
60731;BMP280;46580;52.114;11.674;2024-02-14T04:37:21;-19374.41;;;5.82
60731;BMP280;46580;52.114;11.674;2024-02-14T04:39:47;-19374.84;;;5.84
60731;BMP280;46580;52.114;11.674;2024-02-14T04:42:12;-19374.84;;;5.84
60731;BMP280;46580;52.114;11.674;2024-02-14T04:44:38;-19375.28;;;5.85
60731;BMP280;46580;52.114;11.674;2024-02-14T04:47:04;-19374.84;;;5.84
60731;BMP280;46580;52.114;11.674;2024-02-14T04:49:32;-19375.28;;;5.85
60731;BMP280;46580;52.114;11.674;2024-02-14T04:51:58;-19374.69;;;5.83
60731;BMP280;46580;52.114;11.674;2024-02-14T04:54:23;-19373.97;;;5.81
60731;BMP280;46580;52.114;11.674;2024-02-14T04:56:50;-19373.56;;;5.79
60731;BMP280;46580;52.114;11.674;2024-02-14T04:59:15;-19373.41;;;5.79
60731;BMP280;46580;52.114;11.674;2024-02-14T05:01:40;-19370.25;;;5.68
60731;BMP280;46580;52.114;11.674;2024-02-14T05:04:06;-19370.53;;;5.69
60731;BMP280;46580;52.114;11.674;2024-02-14T05:06:32;-19371.69;;;5.73
60731;BMP280;46580;52.114;11.674;2024-02-14T05:08:58;-19372.56;;;5.76
60731;BMP280;46580;52.114;11.674;2024-02-14T05:11:23;-19372.56;;;5.76
60731;BMP280;46580;52.114;11.674;2024-02-14T05:13:49;-19370.25;;;5.68
60731;BMP280;46580;52.114;11.674;2024-02-14T05:16:21;-19368.97;;;5.64
60731;BMP280;46580;52.114;11.674;2024-02-14T05:18:46;-19369.09;;;5.64
60731;BMP280;46580;52.114;11.674;2024-02-14T05:21:13;-19369.69;;;5.66
60731;BMP280;46580;52.114;11.674;2024-02-14T05:23:38;-19370.41;;;5.69
60731;BMP280;46580;52.114;11.674;2024-02-14T05:26:04;-19370.53;;;5.69
60731;BMP280;46580;52.114;11.674;2024-02-14T05:28:30;-19370.97;;;5.71
60731;BMP280;46580;52.114;11.674;2024-02-14T05:30:59;-19369.69;;;5.66
60731;BMP280;46580;52.114;11.674;2024-02-14T05:33:25;-19369.09;;;5.64
60731;BMP280;46580;52.114;11.674;2024-02-14T05:35:51;-19369.69;;;5.66
60731;BMP280;46580;52.114;11.674;2024-02-14T05:38:17;-19370.41;;;5.69
60731;BMP280;46580;52.114;11.674;2024-02-14T05:40:48;-19370.53;;;5.69
60731;BMP280;46580;52.114;11.674;2024-02-14T05:43:14;-19368.66;;;5.63
60731;BMP280;46580;52.114;11.674;2024-02-14T05:45:39;-19371.25;;;5.72
60731;BMP280;46580;52.114;11.674;2024-02-14T05:48:06;-19369.97;;;5.67
60731;BMP280;46580;52.114;11.674;2024-02-14T05:50:32;-19370.84;;;5.70
60731;BMP280;46580;52.114;11.674;2024-02-14T05:52:58;-19369.97;;;5.67
60731;BMP280;46580;52.114;11.674;2024-02-14T05:55:24;-19370.25;;;5.68
60731;BMP280;46580;52.114;11.674;2024-02-14T05:57:50;-19371.97;;;5.74
60731;BMP280;46580;52.114;11.674;2024-02-14T06:00:19;-19372.41;;;5.75
60731;BMP280;46580;52.114;11.674;2024-02-14T06:02:46;-19374.28;;;5.82
60731;BMP280;46580;52.114;11.674;2024-02-14T06:05:13;-19373.56;;;5.79
60731;BMP280;46580;52.114;11.674;2024-02-14T06:07:38;-19374.69;;;5.83
60731;BMP280;46580;52.114;11.674;2024-02-14T06:10:04;-19373.41;;;5.79
60731;BMP280;46580;52.114;11.674;2024-02-14T06:12:31;-19375.41;;;5.86
60731;BMP280;46580;52.114;11.674;2024-02-14T06:14:57;-19376.72;;;5.90
60731;BMP280;46580;52.114;11.674;2024-02-14T06:17:22;-19378.16;;;5.95
60731;BMP280;46580;52.114;11.674;2024-02-14T06:19:48;-19378.00;;;5.94
60731;BMP280;46580;52.114;11.674;2024-02-14T06:22:13;-19379.28;;;5.99
60731;BMP280;46580;52.114;11.674;2024-02-14T06:24:38;-19380.88;;;6.04
60731;BMP280;46580;52.114;11.674;2024-02-14T06:27:04;-19381.88;;;6.08
60731;BMP280;46580;52.114;11.674;2024-02-14T06:29:30;-19380.59;;;6.03
60731;BMP280;46580;52.114;11.674;2024-02-14T06:31:55;-19379.72;;;6.00
60731;BMP280;46580;52.114;11.674;2024-02-14T06:34:21;-19380.31;;;6.02
60731;BMP280;46580;52.114;11.674;2024-02-14T06:36:49;-19382.03;;;6.08
60731;BMP280;46580;52.114;11.674;2024-02-14T06:39:14;-19381.31;;;6.06
60731;BMP280;46580;52.114;11.674;2024-02-14T06:41:40;-19382.16;;;6.09
60731;BMP280;46580;52.114;11.674;2024-02-14T06:44:06;-19382.03;;;6.08
60731;BMP280;46580;52.114;11.674;2024-02-14T06:46:31;-19383.59;;;6.13
60731;BMP280;46580;52.114;11.674;2024-02-14T06:48:56;-19382.59;;;6.10
60731;BMP280;46580;52.114;11.674;2024-02-14T06:51:22;-19382.88;;;6.11
60731;BMP280;46580;52.114;11.674;2024-02-14T06:53:49;-19381.59;;;6.07
60731;BMP280;46580;52.114;11.674;2024-02-14T06:56:16;-19382.16;;;6.09
60731;BMP280;46580;52.114;11.674;2024-02-14T06:58:41;-19381.44;;;6.06
60731;BMP280;46580;52.114;11.674;2024-02-14T07:01:06;-19378.88;;;5.97
60731;BMP280;46580;52.114;11.674;2024-02-14T07:03:32;-19378.28;;;5.95
60731;BMP280;46580;52.114;11.674;2024-02-14T07:05:59;-19380.88;;;6.04
60731;BMP280;46580;52.114;11.674;2024-02-14T07:08:27;-19379.72;;;6.00
60731;BMP280;46580;52.114;11.674;2024-02-14T07:10:54;-19379.44;;;5.99
60731;BMP280;46580;52.114;11.674;2024-02-14T07:13:20;-19379.88;;;6.01
60731;BMP280;46580;52.114;11.674;2024-02-14T07:15:46;-19379.72;;;6.00
60731;BMP280;46580;52.114;11.674;2024-02-14T07:18:11;-19381.88;;;6.08
60731;BMP280;46580;52.114;11.674;2024-02-14T07:20:37;-19381.59;;;6.07
60731;BMP280;46580;52.114;11.674;2024-02-14T07:23:02;-19381.16;;;6.05
60731;BMP280;46580;52.114;11.674;2024-02-14T07:25:28;-19383.03;;;6.12
60731;BMP280;46580;52.114;11.674;2024-02-14T07:27:53;-19383.16;;;6.12
60731;BMP280;46580;52.114;11.674;2024-02-14T07:30:19;-19383.59;;;6.13
60731;BMP280;46580;52.114;11.674;2024-02-14T07:32:44;-19385.75;;;6.21
60731;BMP280;46580;52.114;11.674;2024-02-14T07:35:11;-19384.59;;;6.17
60731;BMP280;46580;52.114;11.674;2024-02-14T07:37:38;-19384.31;;;6.16
60731;BMP280;46580;52.114;11.674;2024-02-14T07:40:04;-19384.59;;;6.17
60731;BMP280;46580;52.114;11.674;2024-02-14T07:42:30;-19384.03;;;6.15
60731;BMP280;46580;52.114;11.674;2024-02-14T07:44:56;-19384.88;;;6.18
60731;BMP280;46580;52.114;11.674;2024-02-14T07:47:22;-19385.75;;;6.21
60731;BMP280;46580;52.114;11.674;2024-02-14T07:49:50;-19385.19;;;6.19
60731;BMP280;46580;52.114;11.674;2024-02-14T07:52:21;-19386.19;;;6.22
60731;BMP280;46580;52.114;11.674;2024-02-14T07:54:46;-19387.03;;;6.25
60731;BMP280;46580;52.114;11.674;2024-02-14T07:57:12;-19386.59;;;6.24
60731;BMP280;46580;52.114;11.674;2024-02-14T07:59:37;-19387.63;;;6.27
60731;BMP280;46580;52.114;11.674;2024-02-14T08:02:03;-19387.34;;;6.26
60731;BMP280;46580;52.114;11.674;2024-02-14T08:04:29;-19388.63;;;6.31
60731;BMP280;46580;52.114;11.674;2024-02-14T08:06:54;-19387.75;;;6.28
60731;BMP280;46580;52.114;11.674;2024-02-14T08:09:19;-19389.47;;;6.33
60731;BMP280;46580;52.114;11.674;2024-02-14T08:11:45;-19390.19;;;6.36
60731;BMP280;46580;52.114;11.674;2024-02-14T08:14:10;-19390.91;;;6.38
60731;BMP280;46580;52.114;11.674;2024-02-14T08:16:37;-19392.94;;;6.45
60731;BMP280;46580;52.114;11.674;2024-02-14T08:19:03;-19394.66;;;6.51
60731;BMP280;46580;52.114;11.674;2024-02-14T08:21:28;-19395.50;;;6.54
60731;BMP280;46580;52.114;11.674;2024-02-14T08:23:54;-19396.06;;;6.56
60731;BMP280;46580;52.114;11.674;2024-02-14T08:26:21;-19397.38;;;6.60
60731;BMP280;46580;52.114;11.674;2024-02-14T08:28:48;-19398.66;;;6.65
60731;BMP280;46580;52.114;11.674;2024-02-14T08:31:14;-19399.94;;;6.69
60731;BMP280;46580;52.114;11.674;2024-02-14T08:33:39;-19400.66;;;6.71
60731;BMP280;46580;52.114;11.674;2024-02-14T08:36:05;-19402.69;;;6.78
60731;BMP280;46580;52.114;11.674;2024-02-14T08:38:32;-19404.53;;;6.85
60731;BMP280;46580;52.114;11.674;2024-02-14T08:40:58;-19405.53;;;6.88
60731;BMP280;46580;52.114;11.674;2024-02-14T08:43:23;-19407.13;;;6.93
60731;BMP280;46580;52.114;11.674;2024-02-14T08:45:56;-19409.28;;;7.01
60731;BMP280;46580;52.114;11.674;2024-02-14T08:48:22;-19410.41;;;7.05
60731;BMP280;46580;52.114;11.674;2024-02-14T08:50:48;-19411.28;;;7.07
60731;BMP280;46580;52.114;11.674;2024-02-14T08:53:13;-19413.28;;;7.14
60731;BMP280;46580;52.114;11.674;2024-02-14T08:55:40;-19414.56;;;7.19
60731;BMP280;46580;52.114;11.674;2024-02-14T08:58:05;-19416.72;;;7.26
60731;BMP280;46580;52.114;11.674;2024-02-14T09:00:31;-19417.88;;;7.30
60731;BMP280;46580;52.114;11.674;2024-02-14T09:02:57;-19418.72;;;7.33
60731;BMP280;46580;52.114;11.674;2024-02-14T09:05:25;-19420.31;;;7.38
60731;BMP280;46580;52.114;11.674;2024-02-14T09:07:51;-19421.31;;;7.42
60731;BMP280;46580;52.114;11.674;2024-02-14T09:10:16;-19422.31;;;7.45
60731;BMP280;46580;52.114;11.674;2024-02-14T09:12:41;-19425.31;;;7.55
60731;BMP280;46580;52.114;11.674;2024-02-14T09:15:07;-19428.19;;;7.65
60731;BMP280;46580;52.114;11.674;2024-02-14T09:17:33;-19431.34;;;7.76
60731;BMP280;46580;52.114;11.674;2024-02-14T09:19:59;-19433.63;;;7.83
60731;BMP280;46580;52.114;11.674;2024-02-14T09:22:25;-19435.66;;;7.90
60731;BMP280;46580;52.114;11.674;2024-02-14T09:24:50;-19436.50;;;7.93
60731;BMP280;46580;52.114;11.674;2024-02-14T09:27:16;-19437.06;;;7.95
60731;BMP280;46580;52.114;11.674;2024-02-14T09:29:42;-19437.38;;;7.96
60731;BMP280;46580;52.114;11.674;2024-02-14T09:32:07;-19438.38;;;7.99
60731;BMP280;46580;52.114;11.674;2024-02-14T09:34:34;-19438.66;;;8.00
60731;BMP280;46580;52.114;11.674;2024-02-14T09:36:59;-19439.53;;;8.03
60731;BMP280;46580;52.114;11.674;2024-02-14T09:39:25;-19440.81;;;8.08
60731;BMP280;46580;52.114;11.674;2024-02-14T09:41:59;-19442.97;;;8.15
60731;BMP280;46580;52.114;11.674;2024-02-14T09:44:27;-19443.81;;;8.18
60731;BMP280;46580;52.114;11.674;2024-02-14T09:46:54;-19445.97;;;8.25
60731;BMP280;46580;52.114;11.674;2024-02-14T09:49:24;-19445.41;;;8.23
60731;BMP280;46580;52.114;11.674;2024-02-14T09:51:50;-19445.69;;;8.24
60731;BMP280;46580;52.114;11.674;2024-02-14T09:54:17;-19445.69;;;8.24
60731;BMP280;46580;52.114;11.674;2024-02-14T09:56:52;-19446.53;;;8.27
60731;BMP280;46580;52.114;11.674;2024-02-14T09:59:21;-19447.41;;;8.30
60731;BMP280;46580;52.114;11.674;2024-02-14T10:01:47;-19449.13;;;8.36
60731;BMP280;46580;52.114;11.674;2024-02-14T10:04:14;-19450.41;;;8.40
60731;BMP280;46580;52.114;11.674;2024-02-14T10:06:40;-19451.69;;;8.45
60731;BMP280;46580;52.114;11.674;2024-02-14T10:09:08;-19452.56;;;8.48
60731;BMP280;46580;52.114;11.674;2024-02-14T10:11:37;-19453.84;;;8.52
60731;BMP280;46580;52.114;11.674;2024-02-14T10:14:04;-19454.28;;;8.54
60731;BMP280;46580;52.114;11.674;2024-02-14T10:16:35;-19454.28;;;8.54
60731;BMP280;46580;52.114;11.674;2024-02-14T10:19:03;-19454.56;;;8.54
60731;BMP280;46580;52.114;11.674;2024-02-14T10:21:33;-19454.84;;;8.55
60731;BMP280;46580;52.114;11.674;2024-02-14T10:24:02;-19455.56;;;8.58
60731;BMP280;46580;52.114;11.674;2024-02-14T10:26:30;-19456.13;;;8.60
60731;BMP280;46580;52.114;11.674;2024-02-14T10:28:56;-19456.84;;;8.62
60731;BMP280;46580;52.114;11.674;2024-02-14T10:31:25;-19457.84;;;8.66
60731;BMP280;46580;52.114;11.674;2024-02-14T10:33:51;-19458.88;;;8.69
60731;BMP280;46580;52.114;11.674;2024-02-14T10:36:17;-19460.00;;;8.73
60731;BMP280;46580;52.114;11.674;2024-02-14T10:38:46;-19460.88;;;8.76
60731;BMP280;46580;52.114;11.674;2024-02-14T10:41:14;-19460.88;;;8.76
60731;BMP280;46580;52.114;11.674;2024-02-14T10:43:43;-19461.72;;;8.79
60731;BMP280;46580;52.114;11.674;2024-02-14T10:46:19;-19462.88;;;8.83
60731;BMP280;46580;52.114;11.674;2024-02-14T10:48:46;-19465.16;;;8.91
60731;BMP280;46580;52.114;11.674;2024-02-14T10:51:13;-19466.03;;;8.93
60731;BMP280;46580;52.114;11.674;2024-02-14T10:53:45;-19467.88;;;9.00
60731;BMP280;46580;52.114;11.674;2024-02-14T10:56:17;-19470.59;;;9.09
60731;BMP280;46580;52.114;11.674;2024-02-14T10:58:45;-19472.91;;;9.17
60731;BMP280;46580;52.114;11.674;2024-02-14T11:01:13;-19474.47;;;9.22
60731;BMP280;46580;52.114;11.674;2024-02-14T11:03:40;-19476.75;;;9.30
60731;BMP280;46580;52.114;11.674;2024-02-14T11:06:06;-19479.34;;;9.39
60731;BMP280;46580;52.114;11.674;2024-02-14T11:08:32;-19482.34;;;9.49
60731;BMP280;46580;52.114;11.674;2024-02-14T11:10:59;-19484.78;;;9.57
60731;BMP280;46580;52.114;11.674;2024-02-14T11:13:26;-19486.78;;;9.64
60731;BMP280;46580;52.114;11.674;2024-02-14T11:16:00;-19489.50;;;9.73
60731;BMP280;46580;52.114;11.674;2024-02-14T11:18:27;-19491.81;;;9.81
60731;BMP280;46580;52.114;11.674;2024-02-14T11:20:55;-19492.94;;;9.85
60731;BMP280;46580;52.114;11.674;2024-02-14T11:23:22;-19494.22;;;9.89
60731;BMP280;46580;52.114;11.674;2024-02-14T11:25:48;-19496.25;;;9.96
60731;BMP280;46580;52.114;11.674;2024-02-14T11:28:15;-19497.81;;;10.02
60731;BMP280;46580;52.114;11.674;2024-02-14T11:30:41;-19499.09;;;10.06
60731;BMP280;46580;52.114;11.674;2024-02-14T11:33:23;-19500.66;;;10.11
60731;BMP280;46580;52.114;11.674;2024-02-14T11:35:50;-19502.66;;;10.18
60731;BMP280;46580;52.114;11.674;2024-02-14T11:38:17;-19503.25;;;10.20
60731;BMP280;46580;52.114;11.674;2024-02-14T11:40:43;-19503.53;;;10.21
60731;BMP280;46580;52.114;11.674;2024-02-14T11:43:19;-19503.38;;;10.21
60731;BMP280;46580;52.114;11.674;2024-02-14T11:45:46;-19502.81;;;10.19
60731;BMP280;46580;52.114;11.674;2024-02-14T11:48:15;-19502.53;;;10.18
60731;BMP280;46580;52.114;11.674;2024-02-14T11:50:42;-19504.09;;;10.23
60731;BMP280;46580;52.114;11.674;2024-02-14T11:53:09;-19505.69;;;10.28
60731;BMP280;46580;52.114;11.674;2024-02-14T11:55:37;-19505.81;;;10.29
60731;BMP280;46580;52.114;11.674;2024-02-14T11:58:07;-19506.53;;;10.31
60731;BMP280;46580;52.114;11.674;2024-02-14T12:00:33;-19507.81;;;10.36
60731;BMP280;46580;52.114;11.674;2024-02-14T12:03:01;-19509.84;;;10.42
60731;BMP280;46580;52.114;11.674;2024-02-14T12:05:26;-19511.84;;;10.49
60731;BMP280;46580;52.114;11.674;2024-02-14T12:07:52;-19513.41;;;10.55
60731;BMP280;46580;52.114;11.674;2024-02-14T12:10:19;-19514.97;;;10.60
60731;BMP280;46580;52.114;11.674;2024-02-14T12:12:47;-19516.13;;;10.64
60731;BMP280;46580;52.114;11.674;2024-02-14T12:15:13;-19518.97;;;10.74
60731;BMP280;46580;52.114;11.674;2024-02-14T12:17:41;-19520.69;;;10.79
60731;BMP280;46580;52.114;11.674;2024-02-14T12:20:10;-19524.13;;;10.91
60731;BMP280;46580;52.114;11.674;2024-02-14T12:22:38;-19528.16;;;11.05
60731;BMP280;46580;52.114;11.674;2024-02-14T12:25:05;-19530.16;;;11.12
60731;BMP280;46580;52.114;11.674;2024-02-14T12:27:32;-19531.56;;;11.16
60731;BMP280;46580;52.114;11.674;2024-02-14T12:29:58;-19533.00;;;11.21
60731;BMP280;46580;52.114;11.674;2024-02-14T12:32:26;-19534.56;;;11.27
60731;BMP280;46580;52.114;11.674;2024-02-14T12:34:51;-19535.72;;;11.31
60731;BMP280;46580;52.114;11.674;2024-02-14T12:37:17;-19536.16;;;11.32
60731;BMP280;46580;52.114;11.674;2024-02-14T12:39:42;-19534.72;;;11.27
60731;BMP280;46580;52.114;11.674;2024-02-14T12:42:08;-19533.56;;;11.23
60731;BMP280;46580;52.114;11.674;2024-02-14T12:44:36;-19533.88;;;11.24
60731;BMP280;46580;52.114;11.674;2024-02-14T12:47:03;-19533.28;;;11.22
60731;BMP280;46580;52.114;11.674;2024-02-14T12:49:28;-19533.00;;;11.21
60731;BMP280;46580;52.114;11.674;2024-02-14T12:51:54;-19534.16;;;11.25
60731;BMP280;46580;52.114;11.674;2024-02-14T12:54:25;-19535.28;;;11.29
60731;BMP280;46580;52.114;11.674;2024-02-14T12:56:52;-19536.59;;;11.33
60731;BMP280;46580;52.114;11.674;2024-02-14T12:59:18;-19539.00;;;11.42
60731;BMP280;46580;52.114;11.674;2024-02-14T13:01:44;-19539.88;;;11.45
60731;BMP280;46580;52.114;11.674;2024-02-14T13:04:09;-19540.16;;;11.46
60731;BMP280;46580;52.114;11.674;2024-02-14T13:06:35;-19541.44;;;11.50
60731;BMP280;46580;52.114;11.674;2024-02-14T13:09:02;-19542.72;;;11.54
60731;BMP280;46580;52.114;11.674;2024-02-14T13:11:30;-19543.00;;;11.55
60731;BMP280;46580;52.114;11.674;2024-02-14T13:13:57;-19543.59;;;11.57
60731;BMP280;46580;52.114;11.674;2024-02-14T13:16:22;-19545.03;;;11.62
60731;BMP280;46580;52.114;11.674;2024-02-14T13:18:47;-19546.72;;;11.68
60731;BMP280;46580;52.114;11.674;2024-02-14T13:21:13;-19548.72;;;11.75
60731;BMP280;46580;52.114;11.674;2024-02-14T13:23:38;-19549.03;;;11.76
60731;BMP280;46580;52.114;11.674;2024-02-14T13:26:05;-19550.03;;;11.79
60731;BMP280;46580;52.114;11.674;2024-02-14T13:28:33;-19550.16;;;11.80
60731;BMP280;46580;52.114;11.674;2024-02-14T13:30:58;-19550.44;;;11.81
60731;BMP280;46580;52.114;11.674;2024-02-14T13:33:24;-19549.31;;;11.77
60731;BMP280;46580;52.114;11.674;2024-02-14T13:35:49;-19548.59;;;11.74
60731;BMP280;46580;52.114;11.674;2024-02-14T13:38:15;-19547.88;;;11.72
60731;BMP280;46580;52.114;11.674;2024-02-14T13:40:40;-19548.59;;;11.74
60731;BMP280;46580;52.114;11.674;2024-02-14T13:43:06;-19549.44;;;11.77
60731;BMP280;46580;52.114;11.674;2024-02-14T13:45:40;-19551.59;;;11.85
60731;BMP280;46580;52.114;11.674;2024-02-14T13:48:07;-19553.88;;;11.92
60731;BMP280;46580;52.114;11.674;2024-02-14T13:50:35;-19554.31;;;11.94